createdAt,value
2018-06-19T00:01:44.312Z,2.00
2018-06-19T00:04:13.524Z,2.10
2018-06-19T00:06:42.733Z,1.93
2018-06-19T00:09:12.038Z,2.47
2018-06-19T00:11:41.252Z,2.07
2018-06-19T00:14:10.517Z,2.07
2018-06-19T00:16:39.758Z,2.37
2018-06-19T00:19:09.324Z,2.07
2018-06-19T00:21:46.385Z,1.40
2018-06-19T00:24:15.607Z,1.60
2018-06-19T00:26:44.794Z,2.37
2018-06-19T00:29:14.041Z,2.17
2018-06-19T00:31:43.217Z,2.10
2018-06-19T00:34:12.407Z,1.73
2018-06-19T00:36:41.676Z,1.50
2018-06-19T00:39:12.149Z,1.50
2018-06-19T00:41:41.711Z,2.10
2018-06-19T00:44:11.724Z,2.43
2018-06-19T00:46:44.104Z,2.33
2018-06-19T00:49:13.405Z,2.10
2018-06-19T00:51:42.607Z,1.70
2018-06-19T00:54:11.793Z,1.80
2018-06-19T00:56:53.856Z,1.70
2018-06-19T00:59:23.021Z,1.30
2018-06-19T01:01:52.611Z,1.80
2018-06-19T01:04:21.926Z,1.90
2018-06-19T01:06:51.113Z,1.60
2018-06-19T01:09:20.305Z,1.57
2018-06-19T01:11:49.594Z,1.70
2018-06-19T01:14:18.836Z,1.33
2018-06-19T01:16:48.036Z,1.70
2018-06-19T01:19:17.210Z,1.80
2018-06-19T01:21:46.475Z,1.50
2018-06-19T01:24:15.687Z,2.00
2018-06-19T01:26:44.913Z,3.37
2018-06-19T01:29:14.079Z,1.40
2018-06-19T01:31:43.303Z,1.93
2018-06-19T01:34:12.502Z,2.00
2018-06-19T01:36:41.706Z,1.90
2018-06-19T01:39:11.387Z,2.20
2018-06-19T01:41:40.646Z,1.80
2018-06-19T01:44:10.504Z,1.90
2018-06-19T01:46:39.760Z,1.83
2018-06-19T01:49:08.961Z,2.30
2018-06-19T01:51:38.232Z,1.87
2018-06-19T01:54:07.387Z,1.67
2018-06-19T01:56:36.635Z,2.20
2018-06-19T01:59:05.818Z,2.30
2018-06-19T02:01:35.088Z,2.50
2018-06-19T02:04:04.313Z,2.30
2018-06-19T02:06:33.559Z,1.97
2018-06-19T02:09:02.776Z,2.10
2018-06-19T02:11:31.937Z,2.37
2018-06-19T02:14:01.202Z,2.73
2018-06-19T02:16:30.424Z,2.03
2018-06-19T02:18:59.596Z,2.60
2018-06-19T02:21:28.862Z,2.40
2018-06-19T02:23:58.055Z,2.20
2018-06-19T02:26:27.368Z,2.40
2018-06-19T02:28:56.650Z,2.13
2018-06-19T02:31:25.903Z,3.37
2018-06-19T02:33:55.184Z,2.57
2018-06-19T02:36:24.409Z,2.70
2018-06-19T02:38:53.686Z,2.30
2018-06-19T02:41:23.002Z,2.73
2018-06-19T02:43:52.183Z,2.87
2018-06-19T02:46:21.364Z,2.93
2018-06-19T02:48:50.616Z,2.60
2018-06-19T02:51:19.914Z,2.83
2018-06-19T02:53:49.132Z,2.47
2018-06-19T02:56:18.348Z,2.87
2018-06-19T02:58:47.795Z,3.40
2018-06-19T03:01:16.997Z,2.37
2018-06-19T03:03:46.141Z,2.60
2018-06-19T03:06:17.476Z,2.70
2018-06-19T03:08:46.841Z,2.63
2018-06-19T03:11:16.049Z,3.13
2018-06-19T03:13:45.245Z,3.30
2018-06-19T03:16:14.483Z,2.73
2018-06-19T03:18:43.688Z,2.50
2018-06-19T03:21:13.071Z,2.57
2018-06-19T03:23:42.299Z,3.43
2018-06-19T03:26:11.508Z,2.53
2018-06-19T03:28:40.686Z,3.23
2018-06-19T03:31:09.891Z,2.73
2018-06-19T03:33:39.216Z,3.33
2018-06-19T03:36:08.491Z,3.23
2018-06-19T03:38:37.670Z,3.17
2018-06-19T03:41:06.955Z,3.07
2018-06-19T03:43:36.152Z,3.17
2018-06-19T03:46:05.511Z,3.00
2018-06-19T03:48:34.682Z,2.87
2018-06-19T03:51:03.962Z,3.23
2018-06-19T03:53:33.133Z,2.67
2018-06-19T03:56:02.293Z,2.70
2018-06-19T03:58:32.420Z,2.70
2018-06-19T04:01:01.736Z,2.57
2018-06-19T04:03:30.933Z,3.00
2018-06-19T04:06:00.174Z,2.70
2018-06-19T04:08:29.346Z,2.70
2018-06-19T04:10:58.523Z,2.50
2018-06-19T04:13:27.747Z,2.63
2018-06-19T04:15:56.972Z,2.80
2018-06-19T04:18:26.148Z,3.57
2018-06-19T04:20:55.370Z,2.70
2018-06-19T04:23:24.591Z,2.43
2018-06-19T04:25:54.032Z,2.90
2018-06-19T04:28:23.264Z,2.63
2018-06-19T04:30:52.499Z,3.40
2018-06-19T04:33:21.745Z,3.00
2018-06-19T04:35:50.900Z,2.80
2018-06-19T04:38:20.132Z,3.20
2018-06-19T04:40:49.322Z,3.33
2018-06-19T04:43:18.611Z,2.87
2018-06-19T04:45:47.832Z,2.90
2018-06-19T04:48:17.045Z,3.70
2018-06-19T04:50:46.243Z,3.80
2018-06-19T04:53:15.422Z,3.10
2018-06-19T04:55:44.624Z,3.37
2018-06-19T04:58:14.054Z,3.80
2018-06-19T05:00:43.304Z,4.83
2018-06-19T05:03:12.485Z,4.17
2018-06-19T05:05:41.680Z,4.00
2018-06-19T05:08:10.900Z,4.20
2018-06-19T05:10:40.088Z,4.40
2018-06-19T05:13:09.295Z,5.23
2018-06-19T05:15:38.492Z,4.03
2018-06-19T05:18:07.718Z,4.87
2018-06-19T05:20:36.865Z,4.87
2018-06-19T05:23:06.293Z,4.97
2018-06-19T05:25:35.452Z,5.10
2018-06-19T05:28:04.750Z,5.40
2018-06-19T05:30:34.440Z,4.83
2018-06-19T05:33:03.674Z,5.80
2018-06-19T05:35:32.887Z,5.10
2018-06-19T05:38:02.119Z,5.93
2018-06-19T05:40:31.380Z,5.60
2018-06-19T05:43:00.651Z,5.60
2018-06-19T05:45:29.812Z,5.53
2018-06-19T05:47:59.032Z,4.97
2018-06-19T05:50:28.272Z,5.30
2018-06-19T05:52:57.464Z,5.73
2018-06-19T05:55:26.684Z,6.80
2018-06-19T05:57:55.924Z,6.20
2018-06-19T06:00:25.087Z,5.93
2018-06-19T06:02:54.333Z,6.57
2018-06-19T06:05:23.560Z,6.40
2018-06-19T06:07:52.948Z,6.77
2018-06-19T06:10:22.339Z,5.70
2018-06-19T06:12:51.769Z,6.40
2018-06-19T06:15:21.021Z,6.80
2018-06-19T06:17:50.379Z,6.93
2018-06-19T06:20:19.884Z,7.03
2018-06-19T06:22:49.149Z,6.67
2018-06-19T06:25:18.431Z,7.27
2018-06-19T06:27:48.821Z,7.00
2018-06-19T06:30:18.097Z,7.17
2018-06-19T06:32:47.765Z,7.57
2018-06-19T06:35:17.082Z,7.50
2018-06-19T06:37:46.311Z,8.13
2018-06-19T06:40:15.504Z,8.07
2018-06-19T06:42:44.687Z,8.47
2018-06-19T06:45:13.988Z,8.33
2018-06-19T06:47:43.261Z,8.73
2018-06-19T06:50:12.570Z,7.80
2018-06-19T06:52:41.858Z,7.77
2018-06-19T06:55:11.091Z,9.60
2018-06-19T06:57:40.392Z,8.00
2018-06-19T07:00:09.636Z,8.00
2018-06-19T07:02:38.942Z,9.03
2018-06-19T07:05:08.226Z,8.37
2018-06-19T07:07:37.453Z,8.57
2018-06-19T07:10:06.752Z,8.03
2018-06-19T07:12:35.878Z,8.47
2018-06-19T07:15:05.144Z,8.13
2018-06-19T07:17:34.642Z,7.77
2018-06-19T07:20:04.065Z,8.60
2018-06-19T07:22:33.353Z,8.70
2018-06-19T07:25:02.540Z,8.20
2018-06-19T07:27:31.752Z,9.20
2018-06-19T07:30:01.292Z,9.43
2018-06-19T07:32:30.521Z,9.03
2018-06-19T07:34:59.762Z,10.70
2018-06-19T07:37:29.008Z,10.43
2018-06-19T07:39:58.227Z,9.90
2018-06-19T07:42:27.493Z,9.73
2018-06-19T07:44:56.725Z,10.30
2018-06-19T07:47:25.969Z,10.30
2018-06-19T07:49:55.292Z,10.87
2018-06-19T07:52:24.584Z,10.77
2018-06-19T07:54:53.806Z,13.50
2018-06-19T07:57:23.182Z,10.23
2018-06-19T07:59:52.403Z,11.37
2018-06-19T08:02:23.640Z,11.03
2018-06-19T08:04:54.215Z,10.90
2018-06-19T08:07:23.464Z,11.30
2018-06-19T08:09:53.093Z,11.00
2018-06-19T08:12:23.410Z,12.67
2018-06-19T08:14:52.750Z,13.00
2018-06-19T08:17:22.055Z,13.17
2018-06-19T08:19:51.373Z,12.30
2018-06-19T08:22:21.029Z,12.90
2018-06-19T08:24:50.256Z,13.93
2018-06-19T08:27:19.891Z,14.10
2018-06-19T08:29:49.150Z,15.00
2018-06-19T08:32:18.453Z,13.77
2018-06-19T08:34:47.784Z,14.03
2018-06-19T08:37:17.022Z,14.13
2018-06-19T08:39:46.251Z,13.57
2018-06-19T08:42:15.645Z,14.97
2018-06-19T08:44:45.990Z,14.97
2018-06-19T08:47:17.985Z,16.73
2018-06-19T08:49:48.919Z,14.30
2018-06-19T08:52:20.741Z,14.23
2018-06-19T08:54:50.856Z,15.17
2018-06-19T08:57:20.064Z,14.30
2018-06-19T08:59:49.261Z,15.70
2018-06-19T09:02:18.505Z,14.53
2018-06-19T09:04:48.100Z,14.17
2018-06-19T09:07:17.396Z,13.67
2018-06-19T09:09:46.711Z,11.57
2018-06-19T09:12:15.905Z,13.40
2018-06-19T09:14:45.205Z,11.77
2018-06-19T09:17:14.419Z,10.33
2018-06-19T09:19:43.671Z,11.67
2018-06-19T09:22:13.023Z,9.63
2018-06-19T09:24:42.200Z,11.57
2018-06-19T09:27:11.494Z,10.90
2018-06-19T09:29:40.754Z,11.00
2018-06-19T09:32:10.108Z,10.77
2018-06-19T09:34:39.393Z,10.97
2018-06-19T09:37:08.743Z,12.07
2018-06-19T09:39:38.005Z,9.80
2018-06-19T09:42:07.189Z,9.77
2018-06-19T09:44:36.528Z,9.57
2018-06-19T09:47:05.915Z,9.43
2018-06-19T09:49:38.285Z,9.63
2018-06-19T09:52:08.770Z,9.00
2018-06-19T09:54:38.237Z,9.70
2018-06-19T09:57:07.532Z,13.67
2018-06-19T09:59:36.918Z,14.43
2018-06-19T10:02:06.794Z,12.30
2018-06-19T10:04:36.019Z,12.33
2018-06-19T10:07:05.366Z,13.93
2018-06-19T10:09:34.717Z,14.83
2018-06-19T10:12:06.075Z,16.70
2018-06-19T10:14:35.292Z,17.90
2018-06-19T10:17:04.701Z,17.60
2018-06-19T10:19:34.143Z,18.90
2018-06-19T10:22:05.457Z,19.17
2018-06-19T10:24:35.851Z,17.83
2018-06-19T10:27:06.194Z,16.90
2018-06-19T10:29:36.755Z,17.97
2018-06-19T10:32:06.146Z,16.60
2018-06-19T10:34:35.433Z,18.17
2018-06-19T10:37:05.558Z,19.43
2018-06-19T10:39:35.385Z,21.13
2018-06-19T10:42:05.688Z,21.30
2018-06-19T10:44:35.308Z,23.47
2018-06-19T10:47:04.571Z,22.70
2018-06-19T10:49:34.005Z,25.77
2018-06-19T10:52:03.386Z,25.60
2018-06-19T10:54:32.726Z,24.00
2018-06-19T10:57:03.483Z,24.33
2018-06-19T10:59:32.727Z,24.00
2018-06-19T11:02:01.953Z,25.97
2018-06-19T11:04:32.688Z,24.00
2018-06-19T11:07:01.887Z,27.00
2018-06-19T11:09:31.135Z,27.53
2018-06-19T11:12:00.441Z,24.40
2018-06-19T11:14:29.618Z,28.33
2018-06-19T11:16:58.943Z,26.73
2018-06-19T11:19:28.160Z,27.30
2018-06-19T11:21:57.402Z,29.37
2018-06-19T11:24:27.605Z,29.80
2018-06-19T11:26:56.827Z,29.57
2018-06-19T11:29:26.185Z,29.70
2018-06-19T11:31:55.539Z,29.80
2018-06-19T11:34:24.815Z,28.83
2018-06-19T11:36:53.984Z,26.50
2018-06-19T11:39:23.198Z,25.93
2018-06-19T11:41:52.474Z,25.20
2018-06-19T11:44:21.701Z,24.60
2018-06-19T11:46:51.258Z,23.17
2018-06-19T11:49:20.557Z,20.77
2018-06-19T11:51:49.778Z,22.03
2018-06-19T11:54:19.032Z,19.03
2018-06-19T11:56:48.276Z,16.90
2018-06-19T11:59:17.501Z,18.17
2018-06-19T12:01:47.112Z,17.70
2018-06-19T12:04:16.389Z,16.83
2018-06-19T12:06:45.814Z,14.20
2018-06-19T12:09:15.017Z,14.70
2018-06-19T12:11:44.384Z,12.33
2018-06-19T12:14:13.628Z,12.63
2018-06-19T12:16:43.001Z,11.90
2018-06-19T12:19:12.435Z,11.63
2018-06-19T12:21:41.650Z,12.83
2018-06-19T12:24:10.985Z,11.47
2018-06-19T12:26:40.284Z,11.00
2018-06-19T12:29:09.640Z,12.40
2018-06-19T12:31:38.965Z,10.83
2018-06-19T12:34:08.364Z,13.13
2018-06-19T12:36:37.644Z,11.10
2018-06-19T12:39:08.996Z,10.53
2018-06-19T12:41:42.380Z,11.67
2018-06-19T12:44:11.613Z,12.23
2018-06-19T12:46:41.494Z,12.77
2018-06-19T12:49:11.123Z,14.33
2018-06-19T12:51:55.026Z,14.30
2018-06-19T12:56:31.845Z,14.43
2018-06-19T12:59:01.087Z,11.77
2018-06-19T13:01:30.308Z,10.20
2018-06-19T13:04:10.713Z,10.77
2018-06-19T13:06:40.040Z,10.70
2018-06-19T13:09:09.406Z,9.23
2018-06-19T13:11:38.640Z,9.10
2018-06-19T13:14:19.021Z,10.57
2018-06-19T13:16:59.311Z,10.53
2018-06-19T13:19:39.556Z,9.07
2018-06-19T13:22:08.821Z,9.00
2018-06-19T13:24:38.007Z,9.33
2018-06-19T13:27:07.386Z,10.00
2018-06-19T13:29:49.264Z,10.80
2018-06-19T13:32:18.850Z,9.50
2018-06-19T13:34:48.429Z,11.20
2018-06-19T13:37:17.666Z,11.07
2018-06-19T13:39:47.916Z,9.23
2018-06-19T13:44:32.406Z,9.97
2018-06-19T13:47:01.636Z,9.03
2018-06-19T13:49:30.904Z,9.60
2018-06-19T13:52:00.099Z,9.67
2018-06-19T13:54:29.311Z,8.40
2018-06-19T13:57:23.479Z,8.23
2018-06-19T13:59:52.698Z,7.70
2018-06-19T14:02:22.527Z,7.00
2018-06-19T14:04:51.885Z,7.50
2018-06-19T14:07:22.113Z,6.13
2018-06-19T14:10:17.898Z,6.50
2018-06-19T14:13:02.867Z,6.93
2018-06-19T14:15:35.245Z,5.70
2018-06-19T14:18:04.832Z,5.80
2018-06-19T14:20:34.301Z,6.30
2018-06-19T14:23:03.595Z,5.93
2018-06-19T14:25:32.958Z,6.63
2018-06-19T14:28:02.198Z,7.30
2018-06-19T14:30:31.400Z,6.20
2018-06-19T14:33:00.619Z,6.20
2018-06-19T14:35:29.835Z,5.83
2018-06-19T14:37:59.050Z,6.80
2018-06-19T14:40:28.384Z,6.10
2018-06-19T14:42:57.641Z,7.77
2018-06-19T14:45:26.872Z,7.07
2018-06-19T14:47:56.122Z,6.47
2018-06-19T14:50:25.379Z,6.47
2018-06-19T14:52:54.561Z,6.37
2018-06-19T14:55:23.861Z,5.77
2018-06-19T14:57:53.060Z,6.60
2018-06-19T15:00:22.304Z,4.97
2018-06-19T15:02:51.549Z,5.70
2018-06-19T15:05:20.776Z,6.00
2018-06-19T15:07:51.864Z,5.83
2018-06-19T15:10:21.312Z,5.73
2018-06-19T15:12:50.598Z,5.30
2018-06-19T15:15:19.796Z,6.30
2018-06-19T15:17:49.019Z,5.10
2018-06-19T15:20:18.306Z,5.40
2018-06-19T15:22:47.521Z,5.40
2018-06-19T15:25:16.772Z,4.20
2018-06-19T15:27:46.044Z,5.00
2018-06-19T15:30:15.305Z,5.03
2018-06-19T15:32:44.578Z,5.27
2018-06-19T15:35:13.845Z,5.00
2018-06-19T15:37:43.116Z,5.63
2018-06-19T15:40:12.321Z,4.67
2018-06-19T15:42:41.583Z,4.83
2018-06-19T15:45:11.922Z,4.50
2018-06-19T15:47:41.445Z,4.90
2018-06-19T15:50:10.729Z,5.43
2018-06-19T15:52:40.050Z,5.57
2018-06-19T15:55:09.303Z,5.07
2018-06-19T15:57:38.566Z,5.07
2018-06-19T16:00:07.923Z,4.87
2018-06-19T16:02:37.168Z,5.17
2018-06-19T16:05:06.666Z,4.50
2018-06-19T16:07:39.932Z,5.60
2018-06-19T16:10:09.189Z,5.00
2018-06-19T16:12:38.494Z,4.80
2018-06-19T16:15:07.734Z,6.10
2018-06-19T16:17:36.962Z,5.10
2018-06-19T16:20:06.300Z,5.70
2018-06-19T16:22:36.831Z,5.37
2018-06-19T16:25:06.492Z,6.17
2018-06-19T16:27:37.030Z,5.30
2018-06-19T16:30:06.465Z,4.87
2018-06-19T16:32:35.705Z,4.90
2018-06-19T16:35:05.094Z,5.27
2018-06-19T16:37:34.465Z,5.57
2018-06-19T16:40:03.861Z,5.77
2018-06-19T16:42:33.255Z,5.80
2018-06-19T16:45:02.760Z,5.47
2018-06-19T16:47:32.360Z,5.43
2018-06-19T16:50:01.600Z,6.23
2018-06-19T16:52:31.202Z,6.43
2018-06-19T16:55:00.739Z,7.00
2018-06-19T16:57:30.389Z,6.97
2018-06-19T16:59:59.779Z,6.10
2018-06-19T17:02:29.174Z,7.07
2018-06-19T17:04:58.487Z,5.90
2018-06-19T17:07:28.012Z,6.17
2018-06-19T17:09:57.310Z,5.73
2018-06-19T17:12:26.609Z,5.57
2018-06-19T17:14:55.900Z,5.27
2018-06-19T17:17:25.207Z,5.83
2018-06-19T17:19:54.579Z,5.50
2018-06-19T17:22:23.948Z,5.37
2018-06-19T17:24:53.328Z,5.97
2018-06-19T17:27:22.645Z,5.57
2018-06-19T17:29:51.892Z,5.00
2018-06-19T17:32:21.184Z,6.03
2018-06-19T17:34:50.589Z,6.00
2018-06-19T17:37:20.063Z,6.40
2018-06-19T17:39:49.369Z,5.20
2018-06-19T17:42:18.769Z,5.40
2018-06-19T17:44:48.083Z,5.40
2018-06-19T17:47:23.892Z,5.20
2018-06-19T17:49:53.506Z,4.67
2018-06-19T17:52:22.833Z,5.47
2018-06-19T17:54:52.067Z,4.60
2018-06-19T17:57:21.301Z,5.57
2018-06-19T17:59:51.715Z,5.17
2018-06-19T18:02:21.040Z,5.20
2018-06-19T18:04:54.912Z,5.03
2018-06-19T18:07:25.834Z,5.47
2018-06-19T18:09:55.277Z,4.60
2018-06-19T18:12:24.662Z,5.60
2018-06-19T18:14:53.949Z,4.27
2018-06-19T18:17:23.263Z,4.70
2018-06-19T18:19:52.655Z,5.10
2018-06-19T18:22:22.001Z,4.80
2018-06-19T18:24:51.288Z,4.37
2018-06-19T18:27:20.562Z,3.90
2018-06-19T18:29:49.842Z,5.20
2018-06-19T18:32:19.093Z,4.63
2018-06-19T18:34:48.511Z,4.40
2018-06-19T18:37:17.798Z,4.50
2018-06-19T18:39:47.088Z,4.57
2018-06-19T18:42:16.392Z,4.67
2018-06-19T18:44:45.674Z,4.80
2018-06-19T18:47:14.901Z,5.53
2018-06-19T18:49:44.156Z,6.47
2018-06-19T18:52:13.399Z,5.83
2018-06-19T18:54:42.659Z,5.20
2018-06-19T18:57:11.971Z,4.10
2018-06-19T18:59:41.241Z,4.30
2018-06-19T19:02:10.576Z,5.17
2018-06-19T19:04:39.815Z,5.40
2018-06-19T19:07:09.091Z,4.63
2018-06-19T19:09:42.771Z,5.03
2018-06-19T19:12:11.993Z,5.13
2018-06-19T19:14:46.547Z,5.00
2018-06-19T19:17:21.096Z,5.07
2018-06-19T19:19:50.442Z,5.50
2018-06-19T19:22:20.419Z,5.77
2018-06-19T19:24:49.728Z,5.17
2018-06-19T19:27:24.081Z,4.77
2018-06-19T19:29:58.672Z,4.67
2018-06-19T19:32:29.045Z,5.40
2018-06-19T19:34:58.278Z,4.80
2018-06-19T19:37:32.660Z,5.27
2018-06-19T19:40:04.476Z,6.10
2018-06-19T19:42:33.791Z,6.10
2018-06-19T19:45:03.192Z,5.13
2018-06-19T19:47:37.666Z,4.83
2018-06-19T19:50:06.974Z,4.40
2018-06-19T19:52:36.311Z,4.43
2018-06-19T19:55:05.571Z,5.17
2018-06-19T19:59:42.250Z,4.80
2018-06-19T20:02:11.524Z,4.80
2018-06-19T20:04:40.812Z,4.50
2018-06-19T20:07:10.080Z,4.97
2018-06-19T20:09:39.400Z,5.10
2018-06-19T20:12:08.877Z,5.70
2018-06-19T20:14:38.092Z,4.80
2018-06-19T20:17:07.409Z,4.83
2018-06-19T20:19:36.691Z,4.80
2018-06-19T20:22:05.977Z,5.47
2018-06-19T20:24:35.233Z,5.37
2018-06-19T20:27:04.523Z,5.67
2018-06-19T20:29:33.823Z,4.67
2018-06-19T20:32:03.207Z,5.13
2018-06-19T20:34:32.499Z,5.10
2018-06-19T20:37:01.891Z,5.07
2018-06-19T20:39:31.261Z,5.10
2018-06-19T20:42:01.378Z,4.10
2018-06-19T20:44:31.011Z,5.43
2018-06-19T20:47:00.367Z,4.77
2018-06-19T20:49:29.931Z,5.23
2018-06-19T20:51:59.378Z,4.87
2018-06-19T20:54:28.747Z,5.47
2018-06-19T20:56:57.998Z,4.93
2018-06-19T20:59:27.326Z,5.63
2018-06-19T21:01:56.706Z,5.00
2018-06-19T21:04:26.342Z,4.43
2018-06-19T21:06:55.682Z,5.07
2018-06-19T21:09:25.074Z,5.57
2018-06-19T21:11:54.326Z,3.80
2018-06-19T21:14:23.620Z,5.00
2018-06-19T21:16:52.911Z,4.57
2018-06-19T21:19:22.166Z,4.97
2018-06-19T21:21:51.485Z,5.23
2018-06-19T21:24:20.750Z,4.77
2018-06-19T21:26:50.067Z,5.53
2018-06-19T21:29:19.493Z,4.77
2018-06-19T21:31:48.777Z,4.80
2018-06-19T21:34:18.150Z,4.80
2018-06-19T21:36:47.599Z,4.70
2018-06-19T21:39:16.937Z,4.77
2018-06-19T21:41:46.273Z,4.13
2018-06-19T21:44:15.675Z,4.80
2018-06-19T21:46:45.548Z,4.60
2018-06-19T21:49:14.896Z,4.63
2018-06-19T21:51:44.218Z,5.20
2018-06-19T21:54:13.489Z,5.33
2018-06-19T21:56:42.847Z,5.20
2018-06-19T21:59:12.132Z,5.20
2018-06-19T22:01:41.468Z,5.10
2018-06-19T22:04:10.767Z,5.43
2018-06-19T22:06:39.997Z,5.10
2018-06-19T22:11:47.933Z,5.30
2018-06-19T22:14:17.195Z,5.77
2018-06-19T22:16:46.187Z,5.90
2018-06-19T22:19:15.422Z,5.13
2018-06-19T22:21:44.835Z,4.53
2018-06-19T22:24:14.149Z,4.67
2018-06-19T22:26:43.576Z,4.90
2018-06-19T22:29:12.865Z,4.90
2018-06-19T22:31:42.175Z,4.87
2018-06-19T22:34:11.462Z,4.43
2018-06-19T22:36:40.739Z,5.13
2018-06-19T22:39:09.690Z,4.93
2018-06-19T22:41:38.894Z,5.33
2018-06-19T22:44:08.199Z,5.60
2018-06-19T22:46:37.463Z,4.20
2018-06-19T22:49:06.797Z,4.50
2018-06-19T22:51:36.135Z,5.40
2018-06-19T22:54:05.417Z,5.53
2018-06-19T22:56:34.712Z,4.57
2018-06-19T22:59:05.220Z,4.83
2018-06-19T23:01:34.695Z,5.87
2018-06-19T23:04:04.086Z,5.00
2018-06-19T23:06:33.495Z,5.03
2018-06-19T23:09:02.794Z,6.17
2018-06-19T23:11:32.085Z,5.50
2018-06-19T23:14:01.438Z,4.73
2018-06-19T23:16:30.724Z,4.50
2018-06-19T23:19:00.031Z,4.20
2018-06-19T23:21:29.423Z,4.90
2018-06-19T23:23:58.714Z,5.17
2018-06-19T23:26:27.869Z,5.50
2018-06-19T23:28:57.159Z,5.90
2018-06-19T23:31:26.508Z,4.90
2018-06-19T23:33:55.971Z,5.67
2018-06-19T23:36:25.463Z,5.00
2018-06-19T23:38:54.782Z,5.80
2018-06-19T23:41:24.259Z,6.10
2018-06-19T23:43:53.554Z,4.40
2018-06-19T23:46:22.906Z,5.20
2018-06-19T23:48:52.305Z,5.57
2018-06-19T23:51:21.756Z,4.67
2018-06-19T23:53:51.050Z,5.60
2018-06-19T23:56:20.343Z,5.63
2018-06-19T23:58:49.644Z,4.83
